createdAt,value
2022-09-10T00:01:36.775Z,0.90
2022-09-10T00:04:11.342Z,0.90
2022-09-10T00:06:38.824Z,0.73
2022-09-10T00:09:07.010Z,1.00
2022-09-10T00:11:35.242Z,0.80
2022-09-10T00:14:05.045Z,0.80
2022-09-10T00:16:32.647Z,1.00
2022-09-10T00:19:01.283Z,0.70
2022-09-10T00:21:30.025Z,1.10
2022-09-10T00:23:57.947Z,1.00
2022-09-10T00:26:27.373Z,0.83
2022-09-10T00:28:59.452Z,0.93
2022-09-10T00:31:27.041Z,0.90
2022-09-10T00:33:54.810Z,0.90
2022-09-10T00:36:33.316Z,1.00
2022-09-10T00:39:06.285Z,0.83
2022-09-10T00:41:37.697Z,1.03
2022-09-10T00:44:39.481Z,1.00
2022-09-10T00:47:33.191Z,1.30
2022-09-10T00:50:34.472Z,1.70
2022-09-10T00:53:07.061Z,1.20
2022-09-10T00:55:38.340Z,1.07
2022-09-10T00:58:10.055Z,1.20
2022-09-10T01:00:37.905Z,0.90
2022-09-10T01:03:08.881Z,1.40
2022-09-10T01:05:36.749Z,1.20
2022-09-10T01:08:04.718Z,1.10
2022-09-10T01:10:48.048Z,1.00
2022-09-10T01:13:57.405Z,1.13
2022-09-10T01:17:55.620Z,1.03
2022-09-10T01:21:04.495Z,0.90
2022-09-10T01:24:33.950Z,1.00
2022-09-10T01:27:54.252Z,1.20
2022-09-10T01:30:35.859Z,0.97
2022-09-10T01:33:23.795Z,1.37
2022-09-10T01:35:57.673Z,1.10
2022-09-10T01:38:32.453Z,1.20
2022-09-10T01:40:59.762Z,1.30
2022-09-10T01:43:27.310Z,1.40
2022-09-10T01:46:41.742Z,1.30
2022-09-10T01:49:14.679Z,1.50
2022-09-10T01:52:35.581Z,1.40
2022-09-10T01:55:30.535Z,1.67
2022-09-10T01:58:33.525Z,1.40
2022-09-10T02:02:01.259Z,1.60
2022-09-10T02:04:28.719Z,1.40
2022-09-10T02:06:57.351Z,1.17
2022-09-10T02:09:25.506Z,1.73
2022-09-10T02:11:55.072Z,1.67
2022-09-10T02:14:22.897Z,1.70
2022-09-10T02:16:58.965Z,1.47
2022-09-10T02:19:27.529Z,1.80
2022-09-10T02:21:57.251Z,1.40
2022-09-10T02:24:24.289Z,1.50
2022-09-10T02:26:51.492Z,1.63
2022-09-10T02:29:19.330Z,1.90
2022-09-10T02:31:47.373Z,1.50
2022-09-10T02:34:15.990Z,2.30
2022-09-10T02:36:43.437Z,2.00
2022-09-10T02:39:10.495Z,2.27
2022-09-10T02:41:39.560Z,1.50
2022-09-10T02:44:06.623Z,1.83
2022-09-10T02:46:33.675Z,1.50
2022-09-10T02:49:00.682Z,1.53
2022-09-10T02:51:27.640Z,1.43
2022-09-10T02:53:55.849Z,1.50
2022-09-10T02:56:23.740Z,2.13
2022-09-10T02:58:51.251Z,2.23
2022-09-10T03:01:22.370Z,2.80
2022-09-10T03:03:52.325Z,2.77
2022-09-10T03:06:21.457Z,2.60
2022-09-10T03:08:49.747Z,1.80
2022-09-10T03:11:17.446Z,1.67
2022-09-10T03:13:45.969Z,1.60
2022-09-10T03:16:14.232Z,1.90
2022-09-10T03:18:45.376Z,2.30
2022-09-10T03:21:22.512Z,2.60
2022-09-10T03:23:52.944Z,2.70
2022-09-10T03:26:25.149Z,2.03
2022-09-10T03:28:52.619Z,2.10
2022-09-10T03:31:19.778Z,2.20
2022-09-10T03:33:46.760Z,1.47
2022-09-10T03:36:13.847Z,2.07
2022-09-10T03:38:41.817Z,1.70
2022-09-10T03:41:09.867Z,2.40
2022-09-10T03:43:37.510Z,2.90
2022-09-10T03:46:05.428Z,2.50
2022-09-10T03:48:32.497Z,2.47
2022-09-10T03:50:59.509Z,2.60
2022-09-10T03:53:26.523Z,2.43
2022-09-10T03:55:55.622Z,2.93
2022-09-10T03:58:22.683Z,2.40
2022-09-10T04:00:49.740Z,2.60
2022-09-10T04:03:16.755Z,3.07
2022-09-10T04:05:44.099Z,3.30
2022-09-10T04:08:13.093Z,3.13
2022-09-10T04:10:42.131Z,2.53
2022-09-10T04:13:09.389Z,2.83
2022-09-10T04:15:37.444Z,2.47
2022-09-10T04:18:06.369Z,2.80
2022-09-10T04:20:34.403Z,2.77
2022-09-10T04:23:01.526Z,2.50
2022-09-10T04:25:28.519Z,2.00
2022-09-10T04:27:55.494Z,1.30
2022-09-10T04:30:23.241Z,1.73
2022-09-10T04:32:50.331Z,2.00
2022-09-10T04:35:17.583Z,2.30
2022-09-10T04:37:44.521Z,2.50
2022-09-10T04:40:11.861Z,3.10
2022-09-10T04:42:38.915Z,2.73
2022-09-10T04:45:07.256Z,2.80
2022-09-10T04:47:34.644Z,1.93
2022-09-10T04:50:01.986Z,1.67
2022-09-10T04:52:29.363Z,1.90
2022-09-10T04:54:56.436Z,2.67
2022-09-10T04:57:24.238Z,2.77
2022-09-10T04:59:52.688Z,2.70
2022-09-10T05:02:20.519Z,2.40
2022-09-10T05:04:47.553Z,1.90
2022-09-10T05:07:14.514Z,2.70
2022-09-10T05:09:41.607Z,2.70
2022-09-10T05:12:08.633Z,2.60
2022-09-10T05:14:35.616Z,2.80
2022-09-10T05:17:03.231Z,3.27
2022-09-10T05:19:30.156Z,2.47
2022-09-10T05:21:57.146Z,2.80
2022-09-10T05:24:24.162Z,2.67
2022-09-10T05:26:51.083Z,2.70
2022-09-10T05:29:18.322Z,3.03
2022-09-10T05:31:45.501Z,2.57
2022-09-10T05:34:12.510Z,3.00
2022-09-10T05:36:40.727Z,2.60
2022-09-10T05:39:07.738Z,2.60
2022-09-10T05:41:34.699Z,2.57
2022-09-10T05:44:01.776Z,2.07
2022-09-10T05:46:30.861Z,2.30
2022-09-10T05:48:57.973Z,2.40
2022-09-10T05:51:28.675Z,2.80
2022-09-10T05:53:56.444Z,2.80
2022-09-10T05:56:25.685Z,2.93
2022-09-10T05:58:52.748Z,2.73
2022-09-10T06:01:20.056Z,2.73
2022-09-10T06:03:47.518Z,2.90
2022-09-10T06:06:14.583Z,2.43
2022-09-10T06:08:41.568Z,2.80
2022-09-10T06:11:11.444Z,2.27
2022-09-10T06:13:42.176Z,2.20
2022-09-10T06:16:09.484Z,2.53
2022-09-10T06:18:37.115Z,2.00
2022-09-10T06:21:18.118Z,2.70
2022-09-10T06:23:46.305Z,2.10
2022-09-10T06:26:18.502Z,2.30
2022-09-10T06:28:46.441Z,2.07
2022-09-10T06:31:19.957Z,1.93
2022-09-10T06:33:48.936Z,2.47
2022-09-10T06:36:16.221Z,2.43
2022-09-10T06:38:45.050Z,1.73
2022-09-10T06:41:14.216Z,1.90
2022-09-10T06:43:42.318Z,2.10
2022-09-10T06:46:50.756Z,1.70
2022-09-10T06:49:04.265Z,2.00
2022-09-10T06:51:32.743Z,1.60
2022-09-10T06:54:01.756Z,2.07
2022-09-10T06:56:29.867Z,1.67
2022-09-10T06:59:02.455Z,1.83
2022-09-10T07:01:29.836Z,1.90
2022-09-10T07:04:00.155Z,1.70
2022-09-10T07:06:34.698Z,1.83
2022-09-10T07:09:01.990Z,1.77
2022-09-10T07:11:30.424Z,1.93
2022-09-10T07:13:58.271Z,1.80
2022-09-10T07:16:27.863Z,2.00
2022-09-10T07:18:59.514Z,1.80
2022-09-10T07:21:28.751Z,1.67
2022-09-10T07:23:58.914Z,1.67
2022-09-10T07:26:26.040Z,1.50
2022-09-10T07:28:53.996Z,1.50
2022-09-10T07:31:29.762Z,1.47
2022-09-10T07:34:00.990Z,1.50
2022-09-10T07:36:29.293Z,1.30
2022-09-10T07:39:04.498Z,1.40
2022-09-10T07:41:34.723Z,1.43
2022-09-10T07:44:01.969Z,1.37
2022-09-10T07:46:29.172Z,1.30
2022-09-10T07:49:00.025Z,1.33
2022-09-10T07:51:30.317Z,1.50
2022-09-10T07:53:59.293Z,1.05
2022-09-10T07:56:27.022Z,1.10
2022-09-10T07:58:56.912Z,1.67
2022-09-10T08:01:23.959Z,1.10
2022-09-10T08:03:51.395Z,1.58
2022-09-10T08:06:19.437Z,1.23
2022-09-10T08:08:46.356Z,1.88
2022-09-10T08:11:21.279Z,1.20
2022-09-10T08:13:51.752Z,0.90
2022-09-10T08:16:24.522Z,0.90
2022-09-10T08:18:51.484Z,1.23
2022-09-10T08:21:22.788Z,1.30
2022-09-10T08:23:53.965Z,1.15
2022-09-10T08:26:23.655Z,1.30
2022-09-10T08:28:52.850Z,1.30
2022-09-10T08:31:20.131Z,1.10
2022-09-10T08:33:53.975Z,0.98
2022-09-10T08:36:25.577Z,1.10
2022-09-10T08:38:59.787Z,1.30
2022-09-10T08:41:52.581Z,1.20
2022-09-10T08:44:58.556Z,0.90
2022-09-10T08:47:58.931Z,1.02
2022-09-10T08:50:50.078Z,1.10
2022-09-10T08:54:02.946Z,1.30
2022-09-10T08:56:31.211Z,1.15
2022-09-10T08:59:17.362Z,0.93
2022-09-10T09:01:55.428Z,0.98
2022-09-10T09:04:54.533Z,1.10
2022-09-10T09:07:22.650Z,1.02
2022-09-10T09:09:51.811Z,1.15
2022-09-10T09:12:47.826Z,0.80
2022-09-10T09:15:26.183Z,0.90
2022-09-10T09:18:55.408Z,0.88
2022-09-10T09:22:04.681Z,2.25
2022-09-10T09:25:09.856Z,2.42
2022-09-10T09:27:41.633Z,0.90
2022-09-10T09:30:37.586Z,0.90
2022-09-10T09:33:16.758Z,0.85
2022-09-10T09:36:02.054Z,0.88
2022-09-10T09:38:43.890Z,0.80
2022-09-10T09:41:55.628Z,0.70
2022-09-10T09:45:02.157Z,0.82
2022-09-10T09:47:29.122Z,0.77
2022-09-10T09:49:56.230Z,1.38
2022-09-10T09:52:27.471Z,0.85
2022-09-10T09:55:14.674Z,0.98
2022-09-10T09:57:42.873Z,1.05
2022-09-10T10:00:37.811Z,0.73
2022-09-10T10:03:26.540Z,0.95
2022-09-10T10:06:12.242Z,0.70
2022-09-10T10:08:45.129Z,0.80
2022-09-10T10:11:20.880Z,0.70
2022-09-10T10:13:51.618Z,0.50
2022-09-10T10:16:33.670Z,0.90
2022-09-10T10:19:00.648Z,1.00
2022-09-10T10:21:33.403Z,0.63
2022-09-10T10:24:01.111Z,0.63
2022-09-10T10:26:35.749Z,0.85
2022-09-10T10:29:18.381Z,0.68
2022-09-10T10:31:49.360Z,0.65
2022-09-10T10:34:59.238Z,0.70
2022-09-10T10:38:13.947Z,0.90
2022-09-10T10:41:22.209Z,0.82
2022-09-10T10:44:10.741Z,1.15
2022-09-10T10:46:59.955Z,0.68
2022-09-10T10:50:06.274Z,0.75
2022-09-10T10:53:34.381Z,0.93
2022-09-10T10:56:37.276Z,0.68
2022-09-10T10:59:55.523Z,0.50
2022-09-10T11:03:00.498Z,0.73
2022-09-10T11:05:52.903Z,0.43
2022-09-10T11:08:59.115Z,0.63
2022-09-10T11:11:46.045Z,0.45
2022-09-10T11:14:44.164Z,0.68
2022-09-10T11:17:47.159Z,0.50
2022-09-10T11:20:29.616Z,0.40
2022-09-10T11:23:36.029Z,0.55
2022-09-10T11:26:45.459Z,0.50
2022-09-10T11:29:44.871Z,0.60
2022-09-10T11:32:35.066Z,0.52
2022-09-10T11:35:39.766Z,0.40
2022-09-10T11:38:48.214Z,0.57
2022-09-10T11:41:23.831Z,0.43
2022-09-10T11:44:36.488Z,0.60
2022-09-10T11:47:32.233Z,0.47
2022-09-10T11:50:37.453Z,0.50
2022-09-10T11:53:07.582Z,0.60
2022-09-10T11:56:12.584Z,0.40
2022-09-10T11:59:05.943Z,0.45
2022-09-10T12:02:57.394Z,0.50
2022-09-10T12:05:50.414Z,0.57
2022-09-10T12:08:41.884Z,0.30
2022-09-10T12:12:07.667Z,0.43
2022-09-10T12:14:38.391Z,0.30
2022-09-10T12:17:17.643Z,0.40
2022-09-10T12:19:54.541Z,0.60
2022-09-10T12:22:40.440Z,0.50
2022-09-10T12:25:18.457Z,0.30
2022-09-10T12:28:25.117Z,0.40
2022-09-10T12:30:52.494Z,0.63
2022-09-10T12:33:24.601Z,0.47
2022-09-10T12:35:55.693Z,0.40
2022-09-10T12:38:55.194Z,0.40
2022-09-10T12:41:24.757Z,0.60
2022-09-10T12:43:58.624Z,0.50
2022-09-10T12:46:27.161Z,0.40
2022-09-10T12:48:57.734Z,0.30
2022-09-10T12:51:48.007Z,0.20
2022-09-10T12:54:51.630Z,0.20
2022-09-10T12:57:50.867Z,0.30
2022-09-10T13:00:22.035Z,0.43
2022-09-10T13:03:27.947Z,0.32
2022-09-10T13:06:04.218Z,0.43
2022-09-10T13:08:43.430Z,0.40
2022-09-10T13:11:25.944Z,0.30
2022-09-10T13:14:00.142Z,0.30
2022-09-10T13:16:27.137Z,0.30
2022-09-10T13:19:15.344Z,0.20
2022-09-10T13:21:44.900Z,0.28
2022-09-10T13:24:57.882Z,0.38
2022-09-10T13:27:40.803Z,0.38
2022-09-10T13:30:23.011Z,0.40
2022-09-10T13:33:00.868Z,0.38
2022-09-10T13:36:01.497Z,0.60
2022-09-10T13:39:14.468Z,0.55
2022-09-10T13:41:53.200Z,0.40
2022-09-10T13:44:53.589Z,0.30
2022-09-10T13:47:40.821Z,0.40
2022-09-10T13:50:21.770Z,0.40
2022-09-10T13:52:55.013Z,0.40
2022-09-10T13:55:34.047Z,0.50
2022-09-10T13:58:18.061Z,0.68
2022-09-10T14:01:03.877Z,0.30
2022-09-10T14:03:40.407Z,0.40
2022-09-10T14:06:15.398Z,0.50
2022-09-10T14:09:02.079Z,0.40
2022-09-10T14:11:35.115Z,0.70
2022-09-10T14:14:30.518Z,0.30
2022-09-10T14:17:15.419Z,0.50
2022-09-10T14:20:16.780Z,0.40
2022-09-10T14:22:44.314Z,0.30
2022-09-10T14:25:39.182Z,0.50
2022-09-10T14:28:27.957Z,0.30
2022-09-10T14:31:26.606Z,0.70
2022-09-10T14:33:55.833Z,0.40
2022-09-10T14:36:28.781Z,0.47
2022-09-10T14:39:22.476Z,0.47
2022-09-10T14:42:07.845Z,0.60
2022-09-10T14:44:41.860Z,0.57
2022-09-10T14:47:08.607Z,0.45
2022-09-10T14:49:39.474Z,0.50
2022-09-10T14:52:07.788Z,0.38
2022-09-10T14:54:35.334Z,0.40
2022-09-10T14:57:13.837Z,0.25
2022-09-10T14:59:44.347Z,0.70
2022-09-10T15:02:27.113Z,0.45
2022-09-10T15:04:54.760Z,0.88
2022-09-10T15:07:23.870Z,0.90
2022-09-10T15:09:53.705Z,0.85
2022-09-10T15:12:31.942Z,1.25
2022-09-10T15:14:59.180Z,0.95
2022-09-10T15:17:27.505Z,0.57
2022-09-10T15:19:55.215Z,0.75
2022-09-10T15:22:31.479Z,0.73
2022-09-10T15:25:09.642Z,0.80
2022-09-10T15:27:37.725Z,0.85
2022-09-10T15:30:06.324Z,0.52
2022-09-10T15:32:33.367Z,0.70
2022-09-10T15:35:01.058Z,0.60
2022-09-10T15:37:28.001Z,0.50
2022-09-10T15:39:56.529Z,0.52
2022-09-10T15:42:23.601Z,0.57
2022-09-10T15:44:50.578Z,1.90
2022-09-10T15:47:17.581Z,0.77
2022-09-10T15:49:44.539Z,0.63
2022-09-10T15:52:11.575Z,0.70
2022-09-10T15:54:38.862Z,0.73
2022-09-10T15:57:06.764Z,0.77
2022-09-10T15:59:33.735Z,0.70
2022-09-10T16:02:00.843Z,0.75
2022-09-10T16:04:31.579Z,0.50
2022-09-10T16:07:00.807Z,0.60
2022-09-10T16:09:27.784Z,0.50
2022-09-10T16:11:54.918Z,0.40
2022-09-10T16:14:23.089Z,0.57
2022-09-10T16:16:51.015Z,0.43
2022-09-10T16:19:17.995Z,0.57
2022-09-10T16:21:48.249Z,0.73
2022-09-10T16:24:15.193Z,0.70
2022-09-10T16:26:45.078Z,0.57
2022-09-10T16:29:18.134Z,0.90
2022-09-10T16:31:45.971Z,0.70
2022-09-10T16:34:18.282Z,0.70
2022-09-10T16:36:51.522Z,0.45
2022-09-10T16:39:19.673Z,0.70
2022-09-10T16:41:49.709Z,0.60
2022-09-10T16:44:18.502Z,0.93
2022-09-10T16:46:46.994Z,0.88
2022-09-10T16:49:17.191Z,0.75
2022-09-10T16:51:47.274Z,0.70
2022-09-10T16:54:15.859Z,0.80
2022-09-10T16:56:48.275Z,0.75
2022-09-10T16:59:22.379Z,0.68
2022-09-10T17:01:51.907Z,0.95
2022-09-10T17:04:28.250Z,0.98
2022-09-10T17:06:57.616Z,0.52
2022-09-10T17:09:25.079Z,0.95
2022-09-10T17:11:55.345Z,0.70
2022-09-10T17:14:22.675Z,0.70
2022-09-10T17:16:50.285Z,0.50
2022-09-10T17:19:23.272Z,0.70
2022-09-10T17:21:53.309Z,0.75
2022-09-10T17:24:26.373Z,1.10
2022-09-10T17:26:55.272Z,0.80
2022-09-10T17:29:25.342Z,0.47
2022-09-10T17:31:52.871Z,0.68
2022-09-10T17:34:21.370Z,0.82
2022-09-10T17:36:49.321Z,0.90
2022-09-10T17:39:17.663Z,0.68
2022-09-10T17:41:44.820Z,0.90
2022-09-10T17:44:13.457Z,0.75
2022-09-10T17:46:42.550Z,0.47
2022-09-10T17:49:14.013Z,0.43
2022-09-10T17:51:42.114Z,0.47
2022-09-10T17:54:10.378Z,0.55
2022-09-10T17:56:41.841Z,0.70
2022-09-10T17:59:13.287Z,0.32
2022-09-10T18:01:40.885Z,0.40
2022-09-10T18:04:12.549Z,0.70
2022-09-10T18:06:40.784Z,0.55
2022-09-10T18:09:08.633Z,0.50
2022-09-10T18:11:40.416Z,0.82
2022-09-10T18:14:08.321Z,1.00
2022-09-10T18:16:37.082Z,0.82
2022-09-10T18:19:16.039Z,0.90
2022-09-10T18:21:46.305Z,1.20
2022-09-10T18:24:18.997Z,1.05
2022-09-10T18:26:48.591Z,0.70
2022-09-10T18:29:28.095Z,0.50
2022-09-10T18:32:00.582Z,1.20
2022-09-10T18:34:30.917Z,1.00
2022-09-10T18:37:01.780Z,1.20
2022-09-10T18:39:33.884Z,0.88
2022-09-10T18:42:04.905Z,0.93
2022-09-10T18:44:36.335Z,0.73
2022-09-10T18:47:17.856Z,1.10
2022-09-10T18:49:54.080Z,0.60
2022-09-10T18:52:21.070Z,0.88
2022-09-10T18:54:48.392Z,0.60
2022-09-10T18:57:15.431Z,0.88
2022-09-10T18:59:42.384Z,1.05
2022-09-10T19:02:12.936Z,0.98
2022-09-10T19:04:54.654Z,0.60
2022-09-10T19:07:27.315Z,0.70
2022-09-10T19:09:54.249Z,0.80
2022-09-10T19:12:21.219Z,0.80
2022-09-10T19:14:48.176Z,1.08
2022-09-10T19:17:15.757Z,1.42
2022-09-10T19:19:42.693Z,1.10
2022-09-10T19:22:10.736Z,1.40
2022-09-10T19:24:54.505Z,0.95
2022-09-10T19:27:22.399Z,1.23
2022-09-10T19:29:50.130Z,1.10
2022-09-10T19:32:19.508Z,1.97
2022-09-10T19:34:50.207Z,1.40
2022-09-10T19:37:17.300Z,1.20
2022-09-10T19:39:44.586Z,1.30
2022-09-10T19:42:12.485Z,1.00
2022-09-10T19:44:39.455Z,1.42
2022-09-10T19:47:06.420Z,1.20
2022-09-10T19:49:34.193Z,0.80
2022-09-10T19:52:01.540Z,1.27
2022-09-10T19:54:29.778Z,1.10
2022-09-10T19:56:56.763Z,1.20
2022-09-10T19:59:24.127Z,1.67
2022-09-10T20:01:51.191Z,1.05
2022-09-10T20:04:18.286Z,1.57
2022-09-10T20:06:50.227Z,1.40
2022-09-10T20:09:17.384Z,1.40
2022-09-10T20:11:45.003Z,1.30
2022-09-10T20:14:14.445Z,1.25
2022-09-10T20:16:45.023Z,1.90
2022-09-10T20:19:22.027Z,1.73
2022-09-10T20:21:49.318Z,1.75
2022-09-10T20:24:17.008Z,1.67
2022-09-10T20:26:46.216Z,1.80
2022-09-10T20:29:17.922Z,2.17
2022-09-10T20:31:46.952Z,1.90
2022-09-10T20:34:19.479Z,1.73
2022-09-10T20:36:50.243Z,1.73
2022-09-10T20:39:21.230Z,2.00
2022-09-10T20:41:48.594Z,2.95
2022-09-10T20:44:17.175Z,3.00
2022-09-10T20:46:44.923Z,3.27
2022-09-10T20:49:13.675Z,3.30
2022-09-10T20:51:41.142Z,2.87
2022-09-10T20:54:15.766Z,3.00
2022-09-10T20:56:43.892Z,2.67
2022-09-10T20:59:18.178Z,3.37
2022-09-10T21:01:46.939Z,3.50
2022-09-10T21:04:14.817Z,3.70
2022-09-10T21:06:41.839Z,3.10
2022-09-10T21:09:08.898Z,2.40
2022-09-10T21:11:37.359Z,2.97
2022-09-10T21:14:07.394Z,4.23
2022-09-10T21:16:36.609Z,4.53
2022-09-10T21:19:09.252Z,4.73
2022-09-10T21:21:39.385Z,6.13
2022-09-10T21:24:22.360Z,6.13
2022-09-10T21:26:50.422Z,6.57
2022-09-10T21:29:20.913Z,5.90
2022-09-10T21:31:50.601Z,5.23
2022-09-10T21:34:17.723Z,5.00
2022-09-10T21:36:45.160Z,5.23
2022-09-10T21:39:16.447Z,4.93
2022-09-10T21:41:50.014Z,5.40
2022-09-10T21:44:23.062Z,5.70
2022-09-10T21:46:51.461Z,5.33
2022-09-10T21:49:20.261Z,5.40
2022-09-10T21:51:47.650Z,4.83
2022-09-10T21:54:20.476Z,4.63
2022-09-10T21:56:50.310Z,4.50
2022-09-10T21:59:17.766Z,4.23
2022-09-10T22:01:46.493Z,4.73
2022-09-10T22:04:20.056Z,4.77
2022-09-10T22:06:49.418Z,4.60
2022-09-10T22:09:16.877Z,4.87
2022-09-10T22:11:51.815Z,5.27
2022-09-10T22:14:23.318Z,4.67
2022-09-10T22:16:51.955Z,4.47
2022-09-10T22:19:24.089Z,4.77
2022-09-10T22:21:53.988Z,5.20
2022-09-10T22:24:21.005Z,5.47
2022-09-10T22:26:47.981Z,5.60
2022-09-10T22:29:20.254Z,6.00
2022-09-10T22:31:47.931Z,7.10
2022-09-10T22:34:17.567Z,7.83
2022-09-10T22:36:46.966Z,8.00
2022-09-10T22:39:20.850Z,5.47
2022-09-10T22:41:50.006Z,5.10
2022-09-10T22:44:18.002Z,5.30
2022-09-10T22:46:45.077Z,3.70
2022-09-10T22:49:12.361Z,4.33
2022-09-10T22:51:43.352Z,3.97
2022-09-10T22:54:10.736Z,4.90
2022-09-10T22:56:39.581Z,4.93
2022-09-10T22:59:11.079Z,5.40
2022-09-10T23:01:38.988Z,5.40
2022-09-10T23:04:09.342Z,4.40
2022-09-10T23:06:38.593Z,4.67
2022-09-10T23:09:14.817Z,4.80
2022-09-10T23:11:44.387Z,4.60
2022-09-10T23:14:19.249Z,5.43
2022-09-10T23:16:50.098Z,5.70
2022-09-10T23:19:21.907Z,6.17
2022-09-10T23:21:53.827Z,6.17
2022-09-10T23:24:26.478Z,5.53
2022-09-10T23:26:54.199Z,4.70
2022-09-10T23:29:22.997Z,5.30
2022-09-10T23:31:53.223Z,5.10
2022-09-10T23:34:21.758Z,5.10
2022-09-10T23:36:49.462Z,5.00
2022-09-10T23:39:22.192Z,5.20
2022-09-10T23:41:56.871Z,6.60
2022-09-10T23:44:24.881Z,6.23
2022-09-10T23:46:52.182Z,6.17
2022-09-10T23:49:19.332Z,6.40
2022-09-10T23:51:46.335Z,8.33
2022-09-10T23:54:13.460Z,7.63
2022-09-10T23:56:41.072Z,7.80
2022-09-10T23:59:09.093Z,6.27
